createdAt,value
2022-11-03T00:01:34.401Z,4.28
2022-11-03T00:04:02.100Z,4.20
2022-11-03T00:06:29.921Z,4.75
2022-11-03T00:09:00.904Z,4.50
2022-11-03T00:11:28.645Z,4.47
2022-11-03T00:13:57.644Z,4.32
2022-11-03T00:16:25.222Z,4.20
2022-11-03T00:18:53.045Z,4.80
2022-11-03T00:21:20.708Z,5.05
2022-11-03T00:23:48.444Z,5.15
2022-11-03T00:26:18.804Z,5.00
2022-11-03T00:28:48.656Z,4.97
2022-11-03T00:31:18.232Z,4.63
2022-11-03T00:33:47.033Z,4.65
2022-11-03T00:36:16.715Z,5.22
2022-11-03T00:38:45.082Z,5.03
2022-11-03T00:41:13.648Z,5.60
2022-11-03T00:43:44.860Z,5.40
2022-11-03T00:46:12.501Z,5.20
2022-11-03T00:48:40.297Z,5.47
2022-11-03T00:51:09.808Z,5.80
2022-11-03T00:53:39.278Z,5.90
2022-11-03T00:56:09.721Z,5.80
2022-11-03T00:58:37.407Z,5.50
2022-11-03T01:01:11.657Z,6.25
2022-11-03T01:03:40.840Z,5.53
2022-11-03T01:06:27.225Z,5.85
2022-11-03T01:08:55.528Z,6.20
2022-11-03T01:11:42.554Z,5.40
2022-11-03T01:14:10.916Z,5.80
2022-11-03T01:16:39.898Z,5.57
2022-11-03T01:19:08.106Z,5.88
2022-11-03T01:21:36.713Z,5.78
2022-11-03T01:24:05.252Z,5.93
2022-11-03T01:26:33.127Z,5.28
2022-11-03T01:29:01.678Z,5.22
2022-11-03T01:31:29.956Z,5.55
2022-11-03T01:33:59.076Z,5.75
2022-11-03T01:36:27.356Z,5.70
2022-11-03T01:38:56.743Z,5.63
2022-11-03T01:41:26.184Z,5.90
2022-11-03T01:44:28.137Z,5.68
2022-11-03T01:47:02.459Z,5.93
2022-11-03T01:49:35.273Z,5.20
2022-11-03T01:52:07.776Z,5.68
2022-11-03T01:54:37.399Z,5.63
2022-11-03T01:57:09.361Z,5.68
2022-11-03T01:59:37.639Z,5.32
2022-11-03T02:02:05.535Z,5.90
2022-11-03T02:04:35.295Z,5.68
2022-11-03T02:07:11.809Z,5.90
2022-11-03T02:09:39.808Z,5.60
2022-11-03T02:12:09.817Z,5.97
2022-11-03T02:14:41.552Z,6.18
2022-11-03T02:17:12.542Z,5.90
2022-11-03T02:19:45.445Z,6.78
2022-11-03T02:22:30.925Z,6.40
2022-11-03T02:25:06.268Z,6.40
2022-11-03T02:27:35.269Z,6.65
2022-11-03T02:30:02.905Z,6.90
2022-11-03T02:32:38.195Z,7.05
2022-11-03T02:35:13.687Z,7.05
2022-11-03T02:37:47.092Z,7.18
2022-11-03T02:40:17.268Z,6.63
2022-11-03T02:42:51.829Z,7.55
2022-11-03T02:45:24.003Z,7.85
2022-11-03T02:47:55.374Z,7.28
2022-11-03T02:50:28.139Z,6.68
2022-11-03T02:52:56.140Z,7.00
2022-11-03T02:55:36.042Z,6.80
2022-11-03T02:58:12.179Z,6.90
2022-11-03T03:00:47.461Z,7.40
2022-11-03T03:03:21.109Z,7.22
2022-11-03T03:05:51.872Z,7.40
2022-11-03T03:08:22.093Z,6.70
2022-11-03T03:10:50.266Z,7.05
2022-11-03T03:13:23.664Z,6.95
2022-11-03T03:16:05.429Z,6.75
2022-11-03T03:18:43.768Z,6.72
2022-11-03T03:21:16.071Z,5.85
2022-11-03T03:23:50.456Z,6.40
2022-11-03T03:26:24.072Z,6.80
2022-11-03T03:28:57.447Z,7.03
2022-11-03T03:31:29.566Z,6.93
2022-11-03T03:34:04.362Z,7.43
2022-11-03T03:36:34.540Z,7.72
2022-11-03T03:39:05.834Z,8.05
2022-11-03T03:41:35.216Z,7.63
2022-11-03T03:44:08.161Z,7.45
2022-11-03T03:46:40.489Z,7.70
2022-11-03T03:49:08.897Z,8.00
2022-11-03T03:51:37.484Z,8.20
2022-11-03T03:54:05.053Z,8.43
2022-11-03T03:56:39.619Z,8.27
2022-11-03T03:59:08.799Z,7.60
2022-11-03T04:01:36.490Z,8.20
2022-11-03T04:04:04.290Z,7.65
2022-11-03T04:06:32.022Z,7.15
2022-11-03T04:08:59.557Z,7.35
2022-11-03T04:11:44.957Z,7.82
2022-11-03T04:14:31.417Z,6.85
2022-11-03T04:17:16.685Z,6.63
2022-11-03T04:20:07.448Z,6.85
2022-11-03T04:22:35.036Z,7.07
2022-11-03T04:25:02.628Z,6.88
2022-11-03T04:27:32.455Z,7.35
2022-11-03T04:30:17.537Z,6.57
2022-11-03T04:32:47.133Z,6.53
2022-11-03T04:35:20.223Z,7.30
2022-11-03T04:37:52.233Z,7.50
2022-11-03T04:40:19.808Z,7.63
2022-11-03T04:42:47.628Z,8.00
2022-11-03T04:45:24.367Z,8.15
2022-11-03T04:47:52.958Z,8.25
2022-11-03T04:50:21.994Z,7.55
2022-11-03T04:52:53.733Z,7.00
2022-11-03T04:55:22.615Z,8.30
2022-11-03T04:57:57.136Z,7.70
2022-11-03T05:00:26.129Z,7.55
2022-11-03T05:02:56.140Z,7.07
2022-11-03T05:05:26.137Z,7.40
2022-11-03T05:07:56.332Z,7.28
2022-11-03T05:10:26.289Z,8.05
2022-11-03T05:12:55.588Z,8.18
2022-11-03T05:15:30.966Z,7.78
2022-11-03T05:18:00.977Z,8.15
2022-11-03T05:20:35.994Z,8.35
2022-11-03T05:23:06.251Z,8.50
2022-11-03T05:25:41.371Z,8.07
2022-11-03T05:28:22.437Z,8.27
2022-11-03T05:30:52.615Z,8.02
2022-11-03T05:33:23.449Z,7.95
2022-11-03T05:35:51.133Z,8.10
2022-11-03T05:38:21.145Z,7.88
2022-11-03T05:40:52.668Z,7.32
2022-11-03T05:43:21.320Z,7.25
2022-11-03T05:45:54.833Z,7.57
2022-11-03T05:48:32.176Z,6.85
2022-11-03T05:51:01.261Z,6.93
2022-11-03T05:53:31.976Z,7.30
2022-11-03T05:56:02.322Z,7.70
2022-11-03T05:58:33.116Z,6.80
2022-11-03T06:01:05.613Z,7.43
2022-11-03T06:03:37.401Z,7.70
2022-11-03T06:06:16.837Z,8.35
2022-11-03T06:08:46.051Z,8.20
2022-11-03T06:11:22.479Z,8.18
2022-11-03T06:13:50.085Z,8.35
2022-11-03T06:16:35.115Z,7.90
2022-11-03T06:19:14.667Z,7.95
2022-11-03T06:21:44.872Z,7.75
2022-11-03T06:24:15.002Z,6.78
2022-11-03T06:26:44.161Z,7.10
2022-11-03T06:29:16.092Z,7.20
2022-11-03T06:31:47.849Z,8.20
2022-11-03T06:34:35.464Z,7.30
2022-11-03T06:37:13.522Z,7.95
2022-11-03T06:39:41.439Z,7.60
2022-11-03T06:42:14.129Z,6.40
2022-11-03T06:44:43.788Z,6.63
2022-11-03T06:47:26.571Z,6.03
2022-11-03T06:49:56.276Z,6.25
2022-11-03T06:52:27.923Z,5.50
2022-11-03T06:55:01.747Z,6.07
2022-11-03T06:57:32.899Z,6.57
2022-11-03T07:00:32.575Z,6.75
2022-11-03T07:02:57.870Z,6.95
2022-11-03T07:05:27.009Z,6.67
2022-11-03T07:07:58.304Z,7.75
2022-11-03T07:10:28.337Z,6.82
2022-11-03T07:12:57.137Z,6.13
2022-11-03T07:15:30.196Z,6.63
2022-11-03T07:17:59.894Z,7.10
2022-11-03T07:20:27.838Z,7.53
2022-11-03T07:23:01.447Z,8.45
2022-11-03T07:25:29.024Z,7.80
2022-11-03T07:27:58.230Z,7.75
2022-11-03T07:30:30.352Z,7.45
2022-11-03T07:33:03.795Z,6.90
2022-11-03T07:36:00.280Z,6.50
2022-11-03T07:38:24.970Z,6.55
2022-11-03T07:40:53.592Z,6.40
2022-11-03T07:43:24.363Z,6.60
2022-11-03T07:45:53.739Z,6.80
2022-11-03T07:48:26.409Z,6.68
2022-11-03T07:50:56.102Z,6.57
2022-11-03T07:53:30.844Z,6.57
2022-11-03T07:55:59.967Z,6.97
2022-11-03T07:58:36.773Z,7.05
2022-11-03T08:01:20.485Z,6.60
2022-11-03T08:03:49.966Z,6.65
2022-11-03T08:06:19.876Z,6.55
2022-11-03T08:08:48.113Z,5.90
2022-11-03T08:11:15.756Z,6.47
2022-11-03T08:13:43.402Z,6.28
2022-11-03T08:16:11.004Z,6.20
2022-11-03T08:18:38.652Z,5.90
2022-11-03T08:21:07.848Z,6.32
2022-11-03T08:23:36.506Z,6.30
2022-11-03T08:26:04.079Z,7.07
2022-11-03T08:28:32.624Z,6.70
2022-11-03T08:31:08.044Z,8.02
2022-11-03T08:33:40.486Z,8.02
2022-11-03T08:36:10.529Z,7.97
2022-11-03T08:38:38.707Z,7.78
2022-11-03T08:41:06.622Z,7.80
2022-11-03T08:43:34.171Z,7.70
2022-11-03T08:46:08.241Z,7.80
2022-11-03T08:48:40.803Z,7.93
2022-11-03T08:51:13.141Z,8.07
2022-11-03T08:53:42.491Z,7.20
2022-11-03T08:56:12.656Z,7.22
2022-11-03T08:58:42.015Z,7.20
2022-11-03T09:01:09.586Z,6.72
2022-11-03T09:03:37.191Z,7.15
2022-11-03T09:06:05.024Z,6.72
2022-11-03T09:11:21.532Z,6.40
2022-11-03T09:13:49.094Z,6.13
2022-11-03T09:16:16.863Z,6.47
2022-11-03T09:18:45.355Z,6.60
2022-11-03T09:21:13.517Z,6.18
2022-11-03T09:23:42.533Z,6.00
2022-11-03T09:26:10.110Z,5.53
2022-11-03T09:28:37.665Z,5.97
2022-11-03T09:31:05.265Z,5.88
2022-11-03T09:33:33.004Z,6.22
2022-11-03T09:36:01.526Z,6.38
2022-11-03T09:38:29.122Z,6.25
2022-11-03T09:40:58.043Z,6.17
2022-11-03T09:43:25.648Z,5.97
2022-11-03T09:45:54.230Z,6.40
2022-11-03T09:48:21.871Z,5.97
2022-11-03T09:50:54.782Z,6.22
2022-11-03T09:53:22.656Z,5.90
2022-11-03T09:55:50.216Z,5.85
2022-11-03T09:58:19.507Z,5.90
2022-11-03T10:00:47.460Z,6.25
2022-11-03T10:03:17.896Z,6.22
2022-11-03T10:05:46.375Z,6.35
2022-11-03T10:08:22.768Z,6.40
2022-11-03T10:10:50.726Z,5.90
2022-11-03T10:13:27.531Z,6.53
2022-11-03T10:15:55.321Z,6.32
2022-11-03T10:18:22.941Z,6.50
2022-11-03T10:20:50.693Z,6.40
2022-11-03T10:23:18.483Z,6.07
2022-11-03T10:25:46.983Z,6.03
2022-11-03T10:28:21.153Z,6.47
2022-11-03T10:33:40.523Z,6.90
2022-11-03T10:36:24.165Z,7.30
2022-11-03T10:38:52.132Z,6.53
2022-11-03T10:41:21.560Z,6.97
2022-11-03T10:44:04.525Z,6.85
2022-11-03T10:49:21.533Z,6.93
2022-11-03T10:51:52.320Z,6.07
2022-11-03T10:54:22.706Z,6.82
2022-11-03T10:56:51.881Z,7.60
2022-11-03T10:59:23.334Z,7.35
2022-11-03T11:01:51.176Z,7.00
2022-11-03T11:04:20.351Z,7.03
2022-11-03T11:06:49.306Z,6.90
2022-11-03T11:09:23.182Z,6.60
2022-11-03T11:12:02.460Z,6.55
2022-11-03T11:14:53.862Z,6.75
2022-11-03T11:17:43.588Z,6.90
2022-11-03T11:20:34.154Z,7.72
2022-11-03T11:23:52.415Z,7.55
2022-11-03T11:26:40.942Z,8.25
2022-11-03T11:29:46.516Z,8.50
2022-11-03T11:32:53.026Z,8.40
2022-11-03T11:36:03.952Z,8.43
2022-11-03T11:38:58.475Z,9.10
2022-11-03T11:42:03.711Z,9.15
2022-11-03T11:44:58.080Z,9.40
2022-11-03T11:47:34.869Z,9.27
2022-11-03T11:50:32.653Z,9.23
2022-11-03T11:53:04.011Z,9.25
2022-11-03T11:55:38.922Z,9.60
2022-11-03T11:58:14.407Z,10.20
2022-11-03T12:00:56.810Z,9.80
2022-11-03T12:03:32.040Z,9.18
2022-11-03T12:05:59.725Z,9.20
2022-11-03T12:08:29.986Z,9.80
2022-11-03T12:10:59.946Z,8.90
2022-11-03T12:13:49.248Z,8.48
2022-11-03T12:16:36.000Z,8.18
2022-11-03T12:19:39.632Z,8.00
2022-11-03T12:22:09.351Z,8.25
2022-11-03T12:24:40.037Z,8.00
2022-11-03T12:27:20.136Z,7.90
2022-11-03T12:29:47.793Z,7.68
2022-11-03T12:32:32.406Z,7.90
2022-11-03T12:35:00.972Z,8.45
2022-11-03T12:37:29.662Z,9.35
2022-11-03T12:39:57.246Z,9.73
2022-11-03T12:42:26.025Z,9.60
2022-11-03T12:44:53.686Z,8.80
2022-11-03T12:47:23.733Z,9.10
2022-11-03T12:49:51.672Z,9.00
2022-11-03T12:52:19.235Z,9.13
2022-11-03T12:54:46.873Z,8.85
2022-11-03T12:57:14.545Z,9.20
2022-11-03T12:59:42.291Z,9.77
2022-11-03T13:02:11.640Z,9.80
2022-11-03T13:04:40.679Z,9.43
2022-11-03T13:07:08.243Z,9.60
2022-11-03T13:09:36.696Z,9.80
2022-11-03T13:12:22.028Z,10.00
2022-11-03T13:14:49.673Z,10.07
2022-11-03T13:17:17.240Z,9.73
2022-11-03T13:19:46.236Z,9.50
2022-11-03T13:22:14.420Z,10.13
2022-11-03T13:24:42.653Z,9.30
2022-11-03T13:27:10.219Z,9.32
2022-11-03T13:29:37.820Z,9.35
2022-11-03T13:32:05.971Z,9.32
2022-11-03T13:34:33.590Z,9.23
2022-11-03T13:37:02.526Z,9.63
2022-11-03T13:39:30.109Z,10.80
2022-11-03T13:41:57.689Z,10.52
2022-11-03T13:44:25.363Z,9.13
2022-11-03T13:46:53.100Z,8.90
2022-11-03T13:49:59.239Z,9.50
2022-11-03T13:52:11.146Z,9.70
2022-11-03T14:00:16.988Z,8.38
2022-11-03T14:05:32.965Z,8.30
2022-11-03T14:08:01.900Z,8.23
2022-11-03T14:10:29.525Z,8.53
2022-11-03T14:12:58.180Z,8.50
2022-11-03T14:15:25.749Z,8.27
2022-11-03T14:17:54.547Z,8.38
2022-11-03T14:20:22.383Z,7.43
2022-11-03T14:22:51.216Z,7.05
2022-11-03T14:25:20.684Z,6.57
2022-11-03T14:27:48.327Z,6.50
2022-11-03T14:30:17.201Z,6.43
2022-11-03T14:32:44.773Z,5.13
2022-11-03T14:35:12.416Z,5.60
2022-11-03T14:37:40.042Z,6.03
2022-11-03T14:40:29.070Z,5.15
2022-11-03T14:42:57.008Z,4.60
2022-11-03T14:45:24.652Z,4.53
2022-11-03T14:47:52.266Z,4.00
2022-11-03T14:50:20.023Z,4.40
2022-11-03T14:52:47.577Z,4.03
2022-11-03T14:55:15.356Z,4.75
2022-11-03T14:57:42.899Z,4.10
2022-11-03T15:00:12.783Z,4.07
2022-11-03T15:02:40.921Z,3.90
2022-11-03T15:05:29.050Z,4.50
2022-11-03T15:07:56.622Z,4.17
2022-11-03T15:10:24.279Z,4.40
2022-11-03T15:13:18.330Z,4.40
2022-11-03T15:15:47.279Z,4.00
2022-11-03T15:18:14.909Z,5.10
2022-11-03T15:20:42.501Z,4.68
2022-11-03T15:25:58.877Z,6.00
2022-11-03T15:28:26.536Z,5.90
2022-11-03T15:30:55.495Z,8.70
2022-11-03T15:33:23.068Z,7.90
2022-11-03T15:35:50.703Z,7.38
2022-11-03T15:38:18.782Z,6.10
2022-11-03T15:40:46.627Z,5.60
2022-11-03T15:43:14.196Z,6.38
2022-11-03T15:45:41.792Z,6.07
2022-11-03T15:48:11.173Z,5.90
2022-11-03T15:50:38.956Z,9.73
2022-11-03T15:53:07.511Z,9.23
2022-11-03T15:55:35.068Z,7.70
2022-11-03T15:58:02.605Z,6.30
2022-11-03T16:00:30.580Z,6.55
2022-11-03T16:02:58.270Z,6.47
2022-11-03T16:05:27.247Z,7.47
2022-11-03T16:07:54.843Z,8.13
2022-11-03T16:10:22.373Z,8.38
2022-11-03T16:12:49.947Z,7.90
2022-11-03T16:15:18.104Z,7.45
2022-11-03T16:17:45.920Z,7.28
2022-11-03T16:20:13.742Z,7.28
2022-11-03T16:22:42.988Z,6.70
2022-11-03T16:25:13.359Z,6.55
2022-11-03T16:27:42.770Z,7.20
2022-11-03T16:30:12.572Z,7.03
2022-11-03T16:32:40.305Z,8.18
2022-11-03T16:35:08.874Z,7.97
2022-11-03T16:37:36.604Z,7.70
2022-11-03T16:40:06.962Z,6.78
2022-11-03T16:42:38.552Z,6.07
2022-11-03T16:45:08.874Z,6.20
2022-11-03T16:47:36.546Z,5.88
2022-11-03T16:50:04.477Z,5.57
2022-11-03T16:52:32.167Z,6.18
2022-11-03T16:55:00.375Z,34.42
2022-11-03T16:57:29.577Z,13.70
2022-11-03T16:59:57.837Z,9.93
2022-11-03T17:02:25.941Z,6.97
2022-11-03T17:04:55.998Z,8.23
2022-11-03T17:07:23.918Z,7.38
2022-11-03T17:09:51.746Z,6.63
2022-11-03T17:12:19.479Z,6.37
2022-11-03T17:14:51.338Z,6.07
2022-11-03T17:17:21.963Z,6.20
2022-11-03T17:19:49.799Z,11.80
2022-11-03T17:22:17.794Z,8.85
2022-11-03T17:24:45.582Z,7.20
2022-11-03T17:27:16.461Z,6.30
2022-11-03T17:29:47.042Z,6.30
2022-11-03T17:32:20.752Z,5.93
2022-11-03T17:34:48.706Z,6.03
2022-11-03T17:37:16.690Z,6.88
2022-11-03T17:39:44.526Z,6.38
2022-11-03T17:42:16.357Z,6.45
2022-11-03T17:44:44.734Z,6.68
2022-11-03T17:47:12.826Z,7.07
2022-11-03T17:49:42.336Z,6.85
2022-11-03T17:52:14.669Z,7.10
2022-11-03T17:54:42.337Z,8.40
2022-11-03T17:57:15.899Z,6.85
2022-11-03T17:59:46.660Z,8.02
2022-11-03T18:02:17.325Z,8.67
2022-11-03T18:04:47.581Z,9.27
2022-11-03T18:07:22.459Z,10.63
2022-11-03T18:09:50.374Z,11.60
2022-11-03T18:12:39.094Z,11.60
2022-11-03T18:15:09.378Z,14.43
2022-11-03T18:17:37.116Z,7.15
2022-11-03T18:20:15.002Z,5.60
2022-11-03T18:22:42.726Z,7.60
2022-11-03T18:25:14.399Z,3.70
2022-11-03T18:27:42.217Z,4.40
2022-11-03T18:30:13.069Z,4.00
2022-11-03T18:32:41.813Z,8.23
2022-11-03T18:35:17.065Z,5.03
2022-11-03T18:37:45.375Z,5.80
2022-11-03T18:40:14.671Z,5.90
2022-11-03T18:42:42.582Z,4.57
2022-11-03T18:45:13.037Z,4.47
2022-11-03T18:47:40.864Z,3.75
2022-11-03T18:50:11.187Z,3.60
2022-11-03T18:56:16.348Z,3.00
2022-11-03T18:58:44.093Z,3.33
2022-11-03T19:01:17.860Z,3.30
2022-11-03T19:03:45.828Z,3.42
2022-11-03T19:06:13.834Z,3.70
2022-11-03T19:08:43.967Z,3.15
2022-11-03T19:11:12.263Z,3.25
2022-11-03T19:13:44.305Z,2.72
2022-11-03T19:16:16.507Z,3.08
2022-11-03T19:18:45.821Z,3.25
2022-11-03T19:21:15.065Z,3.10
2022-11-03T19:23:47.857Z,3.03
2022-11-03T19:26:20.703Z,3.20
2022-11-03T19:28:51.410Z,3.25
2022-11-03T19:31:24.080Z,3.33
2022-11-03T19:33:55.837Z,3.10
2022-11-03T19:36:23.679Z,3.20
2022-11-03T19:38:53.189Z,3.30
2022-11-03T19:41:38.353Z,3.20
2022-11-03T19:44:11.307Z,3.05
2022-11-03T19:46:39.763Z,4.40
2022-11-03T19:49:14.603Z,3.60
2022-11-03T19:51:42.557Z,3.85
2022-11-03T19:54:16.543Z,4.47
2022-11-03T19:56:46.373Z,3.73
2022-11-03T19:59:15.577Z,4.00
2022-11-03T20:01:43.752Z,3.80
2022-11-03T20:04:11.645Z,3.92
2022-11-03T20:06:40.949Z,3.72
2022-11-03T20:09:13.498Z,3.78
2022-11-03T20:11:42.521Z,4.20
2022-11-03T20:14:14.941Z,3.58
2022-11-03T20:16:42.646Z,4.23
2022-11-03T20:19:10.308Z,4.20
2022-11-03T20:21:38.112Z,3.80
2022-11-03T20:24:06.239Z,4.00
2022-11-03T20:26:35.213Z,3.90
2022-11-03T20:29:04.399Z,3.60
2022-11-03T20:31:32.009Z,3.97
2022-11-03T20:33:59.698Z,3.63
2022-11-03T20:36:27.287Z,3.28
2022-11-03T20:38:59.295Z,2.90
2022-11-03T20:41:28.609Z,2.95
2022-11-03T20:43:56.907Z,2.38
2022-11-03T20:46:27.875Z,2.20
2022-11-03T20:48:56.275Z,2.88
2022-11-03T20:51:28.098Z,3.38
2022-11-03T20:53:56.848Z,2.20
2022-11-03T20:56:26.082Z,2.20
2022-11-03T20:58:54.200Z,2.25
2022-11-03T21:01:27.561Z,2.05
2022-11-03T21:04:00.402Z,2.13
2022-11-03T21:06:30.086Z,2.05
2022-11-03T21:08:58.950Z,2.10
2022-11-03T21:11:29.852Z,2.13
2022-11-03T21:13:59.900Z,2.08
2022-11-03T21:16:48.253Z,1.92
2022-11-03T21:19:35.992Z,2.30
2022-11-03T21:22:03.812Z,2.90
2022-11-03T21:24:31.459Z,3.58
2022-11-03T21:26:59.009Z,5.37
2022-11-03T21:29:45.730Z,6.10
2022-11-03T21:32:17.302Z,11.57
2022-11-03T21:34:45.451Z,10.05
2022-11-03T21:37:16.957Z,9.57
2022-11-03T21:39:44.901Z,8.68
2022-11-03T21:42:31.053Z,9.80
2022-11-03T21:44:59.656Z,5.65
2022-11-03T21:47:28.615Z,2.88
2022-11-03T21:49:55.339Z,2.30
2022-11-03T21:52:32.517Z,2.20
2022-11-03T21:55:00.518Z,2.53
2022-11-03T21:57:29.110Z,2.75
2022-11-03T21:59:59.157Z,2.43
2022-11-03T22:02:30.323Z,2.60
2022-11-03T22:04:58.556Z,2.05
2022-11-03T22:07:26.330Z,2.10
2022-11-03T22:09:53.853Z,1.90
2022-11-03T22:12:21.428Z,1.90
2022-11-03T22:15:06.616Z,1.80
2022-11-03T22:17:35.822Z,1.98
2022-11-03T22:20:20.790Z,1.95
2022-11-03T22:23:06.296Z,2.10
2022-11-03T22:25:51.695Z,1.98
2022-11-03T22:28:19.879Z,1.80
2022-11-03T22:31:13.677Z,1.80
2022-11-03T22:33:56.557Z,1.67
2022-11-03T22:36:28.565Z,1.60
2022-11-03T22:39:13.739Z,1.33
2022-11-03T22:42:03.532Z,1.40
2022-11-03T22:44:51.521Z,1.10
2022-11-03T22:47:19.206Z,1.20
2022-11-03T22:49:48.230Z,1.00
2022-11-03T22:52:16.812Z,1.20
2022-11-03T22:54:43.418Z,1.30
2022-11-03T22:57:13.036Z,1.13
2022-11-03T22:59:41.042Z,1.00
2022-11-03T23:02:08.721Z,1.13
2022-11-03T23:04:36.395Z,1.10
2022-11-03T23:07:05.338Z,1.00
2022-11-03T23:09:32.860Z,1.23
2022-11-03T23:12:00.473Z,1.00
2022-11-03T23:14:48.696Z,1.10
2022-11-03T23:17:16.311Z,1.00
2022-11-03T23:20:01.663Z,0.93
2022-11-03T23:22:31.572Z,1.20
2022-11-03T23:25:01.010Z,1.00
2022-11-03T23:27:28.687Z,1.10
2022-11-03T23:29:56.235Z,1.10
2022-11-03T23:32:23.879Z,1.00
2022-11-03T23:34:51.531Z,0.90
2022-11-03T23:37:19.071Z,0.80
2022-11-03T23:39:47.965Z,1.03
2022-11-03T23:42:15.597Z,1.05
2022-11-03T23:45:01.161Z,0.82
2022-11-03T23:47:46.461Z,1.00
2022-11-03T23:50:14.040Z,0.88
2022-11-03T23:52:41.768Z,0.93
2022-11-03T23:55:10.905Z,0.80
2022-11-03T23:57:56.076Z,0.80
